Pine Ridge, Mississippi
Current Conditions -  °F | °C
As of 11:53 AM on Wednesday 28 Jan 2015 (Local Time) from KHBG Reporting Station
Clear Clear  
Wind Chill: 59°   Ceiling: Unl
Heat Index: 59°   Visibility: 10mi
Dew Point: 32°   Wind: 3mph
Humidity: 36%   Direction: NA
Pressure: 30.3"   Gusts: NA
Location:  31.1558°N, 89.5311°W
Report Text: KHBG 281753Z AUTO VRB03KT 10SM CLR 15/00 A3030 RMK AO2 SLP258 T01500000 10150 20011 58007
Loading
Personal Weather Stations






























Interactive Weather Map New forecast layout! Learn more

10-Day Weather Forecast

Advertisements
Track Severe Weather on mobile